createdAt,value
2023-10-08T00:00:17.081Z,2.72
2023-10-08T00:02:46.074Z,2.72
2023-10-08T00:05:12.632Z,2.75
2023-10-08T00:07:39.084Z,3.15
2023-10-08T00:10:06.541Z,2.85
2023-10-08T00:12:33.169Z,2.50
2023-10-08T00:14:59.957Z,3.20
2023-10-08T00:17:28.132Z,2.90
2023-10-08T00:19:54.781Z,2.90
2023-10-08T00:22:22.401Z,2.70
2023-10-08T00:24:49.731Z,3.35
2023-10-08T00:27:16.169Z,3.30
2023-10-08T00:29:42.848Z,2.88
2023-10-08T00:32:09.776Z,3.30
2023-10-08T00:34:36.554Z,2.92
2023-10-08T00:37:02.983Z,3.03
2023-10-08T00:39:29.542Z,2.90
2023-10-08T00:41:56.305Z,3.13
2023-10-08T00:44:23.059Z,3.53
2023-10-08T00:46:49.754Z,2.97
2023-10-08T00:49:16.314Z,3.08
2023-10-08T00:51:42.760Z,2.95
2023-10-08T00:54:09.238Z,3.30
2023-10-08T00:56:38.192Z,3.08
2023-10-08T00:59:04.564Z,3.08
2023-10-08T01:01:32.202Z,3.90
2023-10-08T01:03:58.751Z,2.97
2023-10-08T01:06:25.497Z,3.72
2023-10-08T01:08:52.094Z,3.10
2023-10-08T01:11:19.046Z,3.30
2023-10-08T01:13:45.827Z,2.67
2023-10-08T01:16:12.548Z,3.85
2023-10-08T01:18:39.054Z,3.20
2023-10-08T01:21:05.679Z,2.95
2023-10-08T01:23:34.520Z,3.45
2023-10-08T01:26:01.001Z,3.05
2023-10-08T01:28:27.537Z,2.88
2023-10-08T01:30:54.950Z,2.88
2023-10-08T01:33:21.469Z,3.15
2023-10-08T01:35:48.021Z,3.42
2023-10-08T01:38:15.011Z,2.75
2023-10-08T01:40:41.575Z,3.63
2023-10-08T01:43:07.972Z,3.17
2023-10-08T01:45:34.589Z,2.97
2023-10-08T01:48:01.133Z,3.10
2023-10-08T01:50:27.653Z,2.97
2023-10-08T01:52:54.194Z,3.28
2023-10-08T01:55:20.621Z,3.08
2023-10-08T01:57:47.059Z,2.92
2023-10-08T02:00:13.536Z,3.15
2023-10-08T02:02:40.983Z,3.40
2023-10-08T02:05:08.025Z,2.80
2023-10-08T02:07:34.582Z,2.88
2023-10-08T02:10:01.035Z,2.78
2023-10-08T02:12:27.481Z,3.45
2023-10-08T02:14:53.881Z,3.15
2023-10-08T02:17:20.301Z,3.20
2023-10-08T02:19:46.781Z,3.78
2023-10-08T02:22:14.403Z,2.92
2023-10-08T02:24:41.065Z,3.00
2023-10-08T02:27:07.631Z,2.88
2023-10-08T02:29:34.052Z,3.15
2023-10-08T02:32:00.650Z,2.90
2023-10-08T02:34:27.995Z,2.90
2023-10-08T02:36:54.386Z,3.03
2023-10-08T02:39:20.856Z,3.30
2023-10-08T02:41:47.613Z,2.60
2023-10-08T02:44:14.157Z,3.30
2023-10-08T02:46:40.629Z,3.33
2023-10-08T02:49:07.241Z,3.35
2023-10-08T02:51:33.729Z,3.28
2023-10-08T02:54:00.125Z,2.88
2023-10-08T02:56:26.959Z,2.83
2023-10-08T02:58:53.410Z,3.70
2023-10-08T03:01:19.981Z,3.05
2023-10-08T03:03:48.808Z,2.92
2023-10-08T03:06:15.899Z,3.15
2023-10-08T03:08:43.109Z,2.63
2023-10-08T03:11:09.842Z,3.35
2023-10-08T03:13:36.317Z,3.15
2023-10-08T03:16:02.811Z,2.92
2023-10-08T03:18:32.110Z,2.88
2023-10-08T03:20:58.671Z,3.13
2023-10-08T03:23:25.299Z,2.70
2023-10-08T03:25:52.122Z,3.75
2023-10-08T03:28:18.502Z,3.17
2023-10-08T03:30:45.759Z,3.20
2023-10-08T03:33:12.219Z,3.10
2023-10-08T03:35:39.501Z,2.90
2023-10-08T03:38:06.609Z,3.22
2023-10-08T03:40:33.579Z,2.92
2023-10-08T03:43:00.410Z,3.08
2023-10-08T03:45:27.149Z,3.40
2023-10-08T03:47:54.030Z,3.17
2023-10-08T03:50:20.532Z,2.97
2023-10-08T03:52:47.096Z,2.92
2023-10-08T03:55:13.576Z,3.50
2023-10-08T03:57:40.489Z,3.42
2023-10-08T04:00:07.769Z,3.45
2023-10-08T04:02:34.354Z,2.95
2023-10-08T04:05:01.015Z,2.80
2023-10-08T04:07:27.625Z,3.13
2023-10-08T04:09:54.135Z,2.80
2023-10-08T04:12:20.888Z,3.25
2023-10-08T04:14:47.553Z,2.90
2023-10-08T04:17:14.081Z,2.92
2023-10-08T04:19:41.025Z,2.85
2023-10-08T04:22:07.650Z,2.95
2023-10-08T04:24:34.091Z,2.90
2023-10-08T04:27:00.541Z,3.08
2023-10-08T04:29:27.310Z,3.53
2023-10-08T04:31:53.987Z,3.92
2023-10-08T04:34:20.735Z,2.78
2023-10-08T04:36:47.241Z,3.15
2023-10-08T04:39:14.123Z,3.00
2023-10-08T04:41:40.677Z,2.80
2023-10-08T04:44:07.358Z,3.20
2023-10-08T04:46:33.869Z,2.60
2023-10-08T04:49:00.965Z,3.15
2023-10-08T04:51:27.485Z,3.17
2023-10-08T04:53:53.939Z,2.97
2023-10-08T04:56:21.595Z,3.13
2023-10-08T04:58:48.033Z,3.33
2023-10-08T05:01:14.523Z,3.38
2023-10-08T05:03:41.335Z,3.03
2023-10-08T05:06:09.931Z,3.08
2023-10-08T05:08:36.765Z,3.10
2023-10-08T05:11:03.320Z,3.13
2023-10-08T05:13:32.245Z,3.30
2023-10-08T05:15:59.012Z,3.22
2023-10-08T05:18:25.524Z,2.70
2023-10-08T05:20:52.251Z,2.70
2023-10-08T05:23:18.867Z,2.80
2023-10-08T05:25:45.864Z,3.40
2023-10-08T05:28:12.278Z,3.00
2023-10-08T05:30:39.304Z,3.08
2023-10-08T05:33:06.055Z,2.95
2023-10-08T05:35:32.853Z,3.17
2023-10-08T05:37:59.542Z,3.08
2023-10-08T05:40:26.180Z,2.92
2023-10-08T05:42:52.666Z,3.17
2023-10-08T05:45:19.074Z,3.10
2023-10-08T05:47:46.588Z,3.00
2023-10-08T05:50:13.062Z,2.97
2023-10-08T05:52:39.844Z,2.95
2023-10-08T05:55:06.678Z,3.53
2023-10-08T05:57:33.254Z,3.03
2023-10-08T05:59:59.744Z,3.30
2023-10-08T06:02:29.761Z,2.90
2023-10-08T06:04:56.549Z,2.80
2023-10-08T06:07:24.730Z,3.63
2023-10-08T06:09:54.019Z,3.53
2023-10-08T06:12:20.727Z,2.53
2023-10-08T06:14:48.144Z,2.90
2023-10-08T06:17:15.891Z,3.35
2023-10-08T06:22:22.877Z,3.28
2023-10-08T06:24:49.669Z,3.35
2023-10-08T06:27:16.454Z,2.83
2023-10-08T06:29:43.127Z,2.90
2023-10-08T06:32:09.810Z,3.15
2023-10-08T06:34:36.412Z,2.97
2023-10-08T06:37:03.017Z,3.17
2023-10-08T06:39:30.079Z,2.72
2023-10-08T06:41:56.663Z,2.75
2023-10-08T06:44:25.998Z,2.80
2023-10-08T06:47:01.071Z,3.10
2023-10-08T06:49:29.971Z,3.35
2023-10-08T06:51:56.967Z,3.10
2023-10-08T06:54:23.528Z,3.38
2023-10-08T06:56:54.409Z,2.85
2023-10-08T06:59:21.600Z,2.80
2023-10-08T07:01:48.790Z,3.05
2023-10-08T07:04:15.844Z,3.00
2023-10-08T07:06:43.300Z,3.53
2023-10-08T07:09:10.090Z,2.65
2023-10-08T07:11:39.928Z,3.20
2023-10-08T07:16:46.706Z,3.08
2023-10-08T07:19:13.194Z,3.22
2023-10-08T07:21:39.717Z,3.00
2023-10-08T07:24:06.134Z,2.50
2023-10-08T07:26:35.048Z,3.25
2023-10-08T07:29:02.565Z,2.60
2023-10-08T07:31:29.243Z,3.25
2023-10-08T07:33:55.664Z,2.88
2023-10-08T07:36:22.113Z,3.40
2023-10-08T07:38:51.068Z,3.67
2023-10-08T07:41:26.003Z,2.63
2023-10-08T07:43:52.448Z,2.90
2023-10-08T07:46:19.215Z,3.15
2023-10-08T07:48:46.091Z,3.35
2023-10-08T07:51:12.773Z,2.97
2023-10-08T07:56:20.240Z,2.58
2023-10-08T07:58:53.642Z,3.10
2023-10-08T08:04:00.960Z,2.85
2023-10-08T08:11:50.572Z,3.70
2023-10-08T08:17:00.392Z,2.75
2023-10-08T08:22:09.105Z,3.67
2023-10-08T08:27:16.042Z,3.03
2023-10-08T08:29:42.712Z,3.35
2023-10-08T08:32:09.744Z,3.38
2023-10-08T08:34:37.676Z,3.50
2023-10-08T08:37:12.002Z,2.97
2023-10-08T08:39:39.834Z,3.35
2023-10-08T08:42:08.914Z,2.58
2023-10-08T08:49:58.463Z,3.63
2023-10-08T09:00:37.513Z,2.25
2023-10-08T09:08:20.512Z,2.17
2023-10-08T09:18:55.161Z,1.20
2023-10-08T09:24:04.837Z,1.20
2023-10-08T09:26:34.006Z,1.50
2023-10-08T09:29:01.129Z,1.05
2023-10-08T09:42:09.718Z,1.02
2023-10-08T09:52:50.596Z,0.40
2023-10-08T11:35:28.720Z,0.30
2023-10-08T12:13:40.370Z,0.43
2023-10-08T12:29:49.807Z,0.65
2023-10-08T12:53:51.021Z,0.70
2023-10-08T13:31:45.570Z,1.30
2023-10-08T15:11:57.309Z,1.30
2023-10-08T15:14:24.850Z,1.60
2023-10-08T15:16:53.966Z,1.40
2023-10-08T15:19:23.405Z,1.30
2023-10-08T15:21:50.751Z,1.60
2023-10-08T15:24:18.059Z,1.38
2023-10-08T15:26:45.396Z,1.70
2023-10-08T15:29:13.170Z,1.52
2023-10-08T15:31:40.702Z,1.60
2023-10-08T15:34:13.119Z,1.35
2023-10-08T15:36:46.157Z,1.40
2023-10-08T15:39:13.745Z,1.33
2023-10-08T15:41:41.169Z,1.70
2023-10-08T15:44:09.902Z,1.00
2023-10-08T15:46:39.950Z,1.00
2023-10-08T15:49:07.312Z,1.50
2023-10-08T15:51:36.863Z,1.10
2023-10-08T15:54:05.289Z,1.70
2023-10-08T15:56:32.838Z,2.05
2023-10-08T15:59:00.197Z,1.60
2023-10-08T16:01:27.578Z,1.50
2023-10-08T16:03:55.104Z,1.50
2023-10-08T16:06:22.643Z,1.50
2023-10-08T16:08:50.042Z,1.10
2023-10-08T16:11:17.382Z,1.50
2023-10-08T16:13:44.804Z,1.27
2023-10-08T16:16:12.247Z,1.10
2023-10-08T16:18:40.247Z,0.90
2023-10-08T16:21:10.057Z,1.40
2023-10-08T16:23:37.660Z,0.98
2023-10-08T16:26:05.036Z,1.27
2023-10-08T16:28:32.286Z,1.25
2023-10-08T16:30:59.972Z,1.33
2023-10-08T16:33:27.498Z,1.00
2023-10-08T16:35:55.195Z,1.38
2023-10-08T16:38:22.682Z,1.35
2023-10-08T16:40:50.082Z,1.17
2023-10-08T16:43:17.451Z,1.23
2023-10-08T16:45:44.562Z,1.70
2023-10-08T16:48:12.382Z,1.45
2023-10-08T16:50:40.034Z,1.92
2023-10-08T16:53:08.168Z,1.40
2023-10-08T16:55:35.208Z,1.52
2023-10-08T16:58:03.190Z,1.55
2023-10-08T17:00:31.116Z,1.60
2023-10-08T17:02:58.420Z,1.40
2023-10-08T17:05:25.563Z,1.55
2023-10-08T17:07:52.764Z,1.23
2023-10-08T17:10:19.868Z,1.30
2023-10-08T17:12:46.656Z,1.42
2023-10-08T17:15:13.643Z,2.85
2023-10-08T17:17:43.121Z,2.33
2023-10-08T17:20:13.280Z,1.90
2023-10-08T17:22:43.498Z,1.50
2023-10-08T17:25:11.908Z,1.60
2023-10-08T17:27:39.185Z,1.70
2023-10-08T17:30:11.992Z,1.90
2023-10-08T17:32:39.451Z,1.63
2023-10-08T17:35:07.972Z,1.55
2023-10-08T17:37:36.045Z,1.63
2023-10-08T17:40:03.315Z,1.40
2023-10-08T17:42:32.856Z,1.67
2023-10-08T17:45:00.280Z,1.48
2023-10-08T17:47:27.683Z,1.48
2023-10-08T17:49:56.049Z,1.50
2023-10-08T17:52:24.214Z,1.95
2023-10-08T17:54:52.058Z,1.88
2023-10-08T17:57:19.506Z,1.65
2023-10-08T17:59:47.054Z,1.25
2023-10-08T18:02:18.419Z,1.70
2023-10-08T18:04:47.228Z,1.80
2023-10-08T18:07:14.768Z,1.98
2023-10-08T18:09:43.050Z,2.17
2023-10-08T18:12:13.086Z,1.83
2023-10-08T18:14:44.990Z,2.08
2023-10-08T18:17:12.487Z,1.70
2023-10-08T18:22:23.861Z,1.80
2023-10-08T18:24:52.383Z,1.52
2023-10-08T18:27:21.695Z,1.80
2023-10-08T18:29:50.587Z,1.67
2023-10-08T18:32:20.760Z,1.80
2023-10-08T18:34:48.258Z,1.80
2023-10-08T18:37:15.818Z,1.98
2023-10-08T18:39:45.445Z,1.75
2023-10-08T18:42:15.330Z,2.03
2023-10-08T18:44:45.194Z,1.73
2023-10-08T18:47:13.552Z,1.55
2023-10-08T18:49:41.068Z,1.65
2023-10-08T18:52:08.563Z,1.73
2023-10-08T18:54:37.144Z,1.60
2023-10-08T18:57:07.520Z,1.60
2023-10-08T18:59:35.521Z,2.10
2023-10-08T19:02:03.252Z,1.55
2023-10-08T19:04:32.458Z,1.75
2023-10-08T19:07:01.240Z,1.92
2023-10-08T19:09:28.823Z,2.00
2023-10-08T19:11:58.481Z,1.80
2023-10-08T19:14:26.011Z,1.50
2023-10-08T19:16:55.671Z,1.60
2023-10-08T19:19:23.489Z,1.77
2023-10-08T19:21:54.280Z,1.80
2023-10-08T19:24:21.871Z,2.00
2023-10-08T19:26:51.430Z,1.90
2023-10-08T19:29:19.513Z,2.00
2023-10-08T19:31:46.952Z,1.70
2023-10-08T19:34:16.504Z,1.75
2023-10-08T19:36:44.010Z,1.55
2023-10-08T19:39:11.959Z,1.73
2023-10-08T19:41:40.586Z,1.60
2023-10-08T19:44:07.989Z,1.80
2023-10-08T19:46:35.556Z,1.65
2023-10-08T19:49:03.017Z,1.50
2023-10-08T19:51:30.527Z,1.95
2023-10-08T19:54:00.640Z,2.10
2023-10-08T19:56:28.065Z,1.77
2023-10-08T19:58:58.608Z,2.00
2023-10-08T20:01:26.967Z,2.20
2023-10-08T20:03:54.810Z,2.15
2023-10-08T20:06:25.049Z,1.95
2023-10-08T20:08:52.393Z,2.25
2023-10-08T20:11:19.661Z,2.25
2023-10-08T20:13:46.832Z,1.92
2023-10-08T20:16:14.136Z,2.00
2023-10-08T20:18:41.464Z,2.47
2023-10-08T20:21:08.817Z,1.58
2023-10-08T20:23:36.279Z,1.92
2023-10-08T20:26:03.660Z,2.20
2023-10-08T20:28:31.138Z,1.80
2023-10-08T20:30:58.330Z,1.90
2023-10-08T20:33:25.618Z,1.90
2023-10-08T20:35:52.911Z,1.70
2023-10-08T20:38:20.988Z,1.80
2023-10-08T20:40:48.119Z,1.80
2023-10-08T20:43:15.110Z,1.88
2023-10-08T20:45:42.261Z,1.70
2023-10-08T20:48:09.430Z,1.60
2023-10-08T20:50:35.965Z,1.55
2023-10-08T20:53:03.160Z,1.70
2023-10-08T20:55:29.963Z,1.70
2023-10-08T20:57:56.456Z,1.60
2023-10-08T21:00:23.000Z,1.83
2023-10-08T21:02:49.698Z,1.70
2023-10-08T21:05:16.252Z,2.28
2023-10-08T21:07:42.699Z,1.98
2023-10-08T21:10:09.196Z,2.00
2023-10-08T21:12:35.968Z,1.63
2023-10-08T21:15:02.906Z,1.75
2023-10-08T21:17:29.370Z,1.92
2023-10-08T21:19:56.024Z,1.80
2023-10-08T21:22:22.564Z,1.50
2023-10-08T21:24:49.120Z,1.90
2023-10-08T21:27:15.589Z,1.67
2023-10-08T21:29:42.660Z,1.75
2023-10-08T21:32:09.945Z,1.70
2023-10-08T21:34:36.496Z,1.70
2023-10-08T21:37:03.971Z,1.55
2023-10-08T21:39:30.411Z,1.98
2023-10-08T21:41:56.961Z,1.92
2023-10-08T21:44:23.452Z,1.92
2023-10-08T21:46:49.901Z,1.55
2023-10-08T21:49:16.643Z,1.98
2023-10-08T21:51:43.159Z,1.80
2023-10-08T21:54:09.751Z,1.90
2023-10-08T21:56:36.217Z,1.98
2023-10-08T21:59:02.688Z,1.88
2023-10-08T22:01:29.947Z,2.17
2023-10-08T22:03:56.886Z,2.10
2023-10-08T22:06:23.745Z,2.22
2023-10-08T22:08:50.485Z,1.90
2023-10-08T22:11:17.124Z,2.25
2023-10-08T22:13:43.712Z,2.30
2023-10-08T22:16:10.135Z,1.90
2023-10-08T22:18:37.185Z,2.08
2023-10-08T22:21:03.770Z,2.05
2023-10-08T22:23:30.298Z,1.80
2023-10-08T22:25:56.690Z,1.63
2023-10-08T22:28:23.113Z,2.35
2023-10-08T22:30:50.903Z,1.80
2023-10-08T22:33:18.093Z,1.80
2023-10-08T22:35:44.619Z,1.80
2023-10-08T22:38:11.067Z,2.13
2023-10-08T22:40:37.527Z,1.83
2023-10-08T22:43:04.071Z,1.80
2023-10-08T22:45:30.578Z,1.80
2023-10-08T22:47:57.203Z,1.75
2023-10-08T22:50:23.895Z,2.20
2023-10-08T22:52:50.455Z,2.08
2023-10-08T22:55:16.872Z,2.00
2023-10-08T22:57:43.632Z,2.28
2023-10-08T23:00:10.321Z,2.03
2023-10-08T23:02:37.051Z,2.20
2023-10-08T23:05:03.916Z,2.20
2023-10-08T23:07:30.709Z,1.77
2023-10-08T23:09:57.279Z,3.00
2023-10-08T23:12:23.809Z,2.00
2023-10-08T23:14:50.890Z,1.88
2023-10-08T23:17:17.463Z,2.20
2023-10-08T23:19:43.965Z,1.92
2023-10-08T23:22:10.590Z,1.73
2023-10-08T23:24:39.254Z,2.13
2023-10-08T23:27:05.907Z,1.70
2023-10-08T23:29:32.354Z,2.00
2023-10-08T23:31:58.790Z,2.22
2023-10-08T23:34:25.264Z,1.83
2023-10-08T23:36:51.679Z,2.22
2023-10-08T23:39:18.181Z,2.30
2023-10-08T23:41:45.014Z,1.90
2023-10-08T23:44:11.537Z,2.13
2023-10-08T23:46:38.214Z,2.30
2023-10-08T23:49:06.873Z,2.10
2023-10-08T23:51:34.501Z,2.08
2023-10-08T23:54:01.008Z,1.55
2023-10-08T23:56:27.514Z,1.98
2023-10-08T23:58:53.943Z,2.22
